sensor_id;sensor_type;location;lat;lon;timestamp;pressure;altitude;pressure_sealevel;temperature;humidity
55866;BME280;41784;49.984;7.518;2022-07-06T00:01:46;98280.78;;;16.49;59.42
55866;BME280;41784;49.984;7.518;2022-07-06T00:04:16;98285.09;;;16.49;59.58
55866;BME280;41784;49.984;7.518;2022-07-06T00:06:44;98281.69;;;16.47;59.40
55866;BME280;41784;49.984;7.518;2022-07-06T00:09:13;98278.31;;;16.42;59.57
55866;BME280;41784;49.984;7.518;2022-07-06T00:11:41;98269.72;;;16.35;59.48
55866;BME280;41784;49.984;7.518;2022-07-06T00:14:10;98275.84;;;16.31;59.79
55866;BME280;41784;49.984;7.518;2022-07-06T00:16:39;98273.31;;;16.26;59.74
55866;BME280;41784;49.984;7.518;2022-07-06T00:19:10;98275.13;;;16.23;59.85
55866;BME280;41784;49.984;7.518;2022-07-06T00:21:38;98274.28;;;16.19;60.42
55866;BME280;41784;49.984;7.518;2022-07-06T00:24:07;98278.72;;;16.14;60.12
55866;BME280;41784;49.984;7.518;2022-07-06T00:26:35;98269.25;;;16.10;60.34
55866;BME280;41784;49.984;7.518;2022-07-06T00:29:04;98269.31;;;16.05;60.46
55866;BME280;41784;49.984;7.518;2022-07-06T00:31:32;98272.88;;;16.00;60.62
55866;BME280;41784;49.984;7.518;2022-07-06T00:34:01;98269.44;;;15.95;61.18
55866;BME280;41784;49.984;7.518;2022-07-06T00:36:32;98280.81;;;15.91;61.42
55866;BME280;41784;49.984;7.518;2022-07-06T00:39:00;98272.09;;;15.92;60.99
55866;BME280;41784;49.984;7.518;2022-07-06T00:41:28;98277.38;;;15.88;61.02
55866;BME280;41784;49.984;7.518;2022-07-06T00:43:57;98273.97;;;15.83;61.30
55866;BME280;41784;49.984;7.518;2022-07-06T00:46:26;98274.03;;;15.80;61.63
55866;BME280;41784;49.984;7.518;2022-07-06T00:48:55;98267.06;;;15.79;61.88
55866;BME280;41784;49.984;7.518;2022-07-06T00:51:25;98266.28;;;15.74;61.65
55866;BME280;41784;49.984;7.518;2022-07-06T00:54:00;98272.38;;;15.73;61.39
55866;BME280;41784;49.984;7.518;2022-07-06T00:56:30;98273.25;;;15.67;62.15
55866;BME280;41784;49.984;7.518;2022-07-06T00:59:00;98274.25;;;15.59;62.19
55866;BME280;41784;49.984;7.518;2022-07-06T01:01:28;98279.47;;;15.59;62.41
55866;BME280;41784;49.984;7.518;2022-07-06T01:03:57;98278.69;;;15.52;62.20
55866;BME280;41784;49.984;7.518;2022-07-06T01:06:25;98277.88;;;15.47;62.68
55866;BME280;41784;49.984;7.518;2022-07-06T01:08:54;98282.28;;;15.40;62.70
55866;BME280;41784;49.984;7.518;2022-07-06T01:11:25;98279.72;;;15.37;62.77
55866;BME280;41784;49.984;7.518;2022-07-06T01:13:53;98278.03;;;15.36;63.13
55866;BME280;41784;49.984;7.518;2022-07-06T01:16:23;98277.97;;;15.39;63.05
55866;BME280;41784;49.984;7.518;2022-07-06T01:18:51;98279.78;;;15.33;63.41
55866;BME280;41784;49.984;7.518;2022-07-06T01:21:22;98280.72;;;15.29;63.04
55866;BME280;41784;49.984;7.518;2022-07-06T01:23:51;98271.16;;;15.29;63.57
55866;BME280;41784;49.984;7.518;2022-07-06T01:26:20;98279.88;;;15.25;63.14
55866;BME280;41784;49.984;7.518;2022-07-06T01:28:50;98271.28;;;15.18;63.38
55866;BME280;41784;49.984;7.518;2022-07-06T01:31:19;98275.72;;;15.12;63.12
55866;BME280;41784;49.984;7.518;2022-07-06T01:33:49;98277.56;;;15.02;63.72
55866;BME280;41784;49.984;7.518;2022-07-06T01:36:17;98275.84;;;14.99;64.07
55866;BME280;41784;49.984;7.518;2022-07-06T01:38:50;98277.56;;;15.00;63.99
55866;BME280;41784;49.984;7.518;2022-07-06T01:41:19;98272.34;;;15.02;64.13
55866;BME280;41784;49.984;7.518;2022-07-06T01:43:47;98276.75;;;14.97;63.88
55866;BME280;41784;49.984;7.518;2022-07-06T01:46:16;98275.03;;;14.93;63.61
55866;BME280;41784;49.984;7.518;2022-07-06T01:48:46;98273.28;;;14.93;64.15
55866;BME280;41784;49.984;7.518;2022-07-06T01:51:14;98270.72;;;14.89;64.02
55866;BME280;41784;49.984;7.518;2022-07-06T01:53:44;98268.22;;;14.84;63.97
55866;BME280;41784;49.984;7.518;2022-07-06T01:56:17;98269.97;;;14.82;64.31
55866;BME280;41784;49.984;7.518;2022-07-06T01:58:50;98260.44;;;14.76;63.50
55866;BME280;41784;49.984;7.518;2022-07-06T02:01:21;98263.97;;;14.72;63.36
55866;BME280;41784;49.984;7.518;2022-07-06T02:03:49;98219.19;;;14.36;63.59
55866;BME280;41784;49.984;7.518;2022-07-06T02:06:17;98274.50;;;14.60;64.55
55866;BME280;41784;49.984;7.518;2022-07-06T02:08:47;98269.34;;;14.55;64.23
55866;BME280;41784;49.984;7.518;2022-07-06T02:11:19;98277.13;;;14.52;64.87
55866;BME280;41784;49.984;7.518;2022-07-06T02:13:48;98275.44;;;14.48;64.60
55866;BME280;41784;49.984;7.518;2022-07-06T02:16:16;98276.31;;;14.47;63.94
55866;BME280;41784;49.984;7.518;2022-07-06T02:18:45;98275.44;;;14.48;64.24
55866;BME280;41784;49.984;7.518;2022-07-06T02:21:14;98278.06;;;14.44;64.33
55866;BME280;41784;49.984;7.518;2022-07-06T02:23:42;98272.03;;;14.40;64.79
55866;BME280;41784;49.984;7.518;2022-07-06T02:26:11;98278.16;;;14.33;64.98
55866;BME280;41784;49.984;7.518;2022-07-06T02:28:42;98281.72;;;14.23;65.33
55866;BME280;41784;49.984;7.518;2022-07-06T02:31:11;98280.00;;;14.17;65.57
55866;BME280;41784;49.984;7.518;2022-07-06T02:33:40;98273.09;;;14.16;65.67
55866;BME280;41784;49.984;7.518;2022-07-06T02:36:10;98277.44;;;14.15;65.44
55866;BME280;41784;49.984;7.518;2022-07-06T02:38:38;98273.16;;;14.08;65.84
55866;BME280;41784;49.984;7.518;2022-07-06T02:41:07;98273.19;;;14.04;65.99
55866;BME280;41784;49.984;7.518;2022-07-06T02:43:36;98272.31;;;14.00;65.97
55866;BME280;41784;49.984;7.518;2022-07-06T02:46:07;98271.50;;;13.98;66.15
55866;BME280;41784;49.984;7.518;2022-07-06T02:48:36;98274.09;;;13.95;66.21
55866;BME280;41784;49.984;7.518;2022-07-06T02:51:05;98274.97;;;13.92;65.47
55866;BME280;41784;49.984;7.518;2022-07-06T02:53:34;98270.66;;;13.90;65.86
55866;BME280;41784;49.984;7.518;2022-07-06T02:56:03;98280.25;;;13.83;65.69
55866;BME280;41784;49.984;7.518;2022-07-06T02:58:32;98281.13;;;13.79;66.38
55866;BME280;41784;49.984;7.518;2022-07-06T03:01:01;98284.63;;;13.72;66.08
55866;BME280;41784;49.984;7.518;2022-07-06T03:03:32;98288.06;;;13.72;66.01
55866;BME280;41784;49.984;7.518;2022-07-06T03:06:01;98297.63;;;13.69;66.27
55866;BME280;41784;49.984;7.518;2022-07-06T03:08:31;98295.06;;;13.61;66.30
55866;BME280;41784;49.984;7.518;2022-07-06T03:11:00;98300.25;;;13.64;66.10
55866;BME280;41784;49.984;7.518;2022-07-06T03:13:29;98307.22;;;13.56;66.56
55866;BME280;41784;49.984;7.518;2022-07-06T03:15:59;98308.09;;;13.52;67.11
55866;BME280;41784;49.984;7.518;2022-07-06T03:18:29;98308.09;;;13.47;66.81
55866;BME280;41784;49.984;7.518;2022-07-06T03:21:00;98316.78;;;13.39;67.14
55866;BME280;41784;49.984;7.518;2022-07-06T03:23:30;98317.69;;;13.28;67.49
55866;BME280;41784;49.984;7.518;2022-07-06T03:25:59;98317.66;;;13.25;67.65
55866;BME280;41784;49.984;7.518;2022-07-06T03:28:29;98315.94;;;13.24;67.78
55866;BME280;41784;49.984;7.518;2022-07-06T03:30:57;98318.53;;;13.18;68.70
55866;BME280;41784;49.984;7.518;2022-07-06T03:33:27;98322.03;;;13.08;69.32
55866;BME280;41784;49.984;7.518;2022-07-06T03:35:55;98323.78;;;13.07;68.98
55866;BME280;41784;49.984;7.518;2022-07-06T03:38:26;98318.59;;;12.97;69.75
55866;BME280;41784;49.984;7.518;2022-07-06T03:40:55;98327.25;;;12.99;69.87
55866;BME280;41784;49.984;7.518;2022-07-06T03:43:24;98326.38;;;13.00;69.89
55866;BME280;41784;49.984;7.518;2022-07-06T03:45:53;98325.53;;;12.95;69.91
55866;BME280;41784;49.984;7.518;2022-07-06T03:48:21;98319.47;;;12.93;70.11
55866;BME280;41784;49.984;7.518;2022-07-06T03:50:50;98321.22;;;12.81;70.46
55866;BME280;41784;49.984;7.518;2022-07-06T03:53:19;98329.84;;;12.83;70.17
55866;BME280;41784;49.984;7.518;2022-07-06T03:55:50;98329.00;;;12.87;69.65
55866;BME280;41784;49.984;7.518;2022-07-06T03:58:31;98330.69;;;12.96;70.58
55866;BME280;41784;49.984;7.518;2022-07-06T04:00:59;98338.47;;;13.01;70.57
55866;BME280;41784;49.984;7.518;2022-07-06T04:03:32;98337.63;;;13.00;69.60
55866;BME280;41784;49.984;7.518;2022-07-06T04:06:01;98330.72;;;12.98;69.99
55866;BME280;41784;49.984;7.518;2022-07-06T04:08:31;98331.56;;;13.00;70.37
55866;BME280;41784;49.984;7.518;2022-07-06T04:11:03;98335.88;;;13.01;69.88
55866;BME280;41784;49.984;7.518;2022-07-06T04:13:32;98340.22;;;12.96;70.02
55866;BME280;41784;49.984;7.518;2022-07-06T04:16:01;98343.66;;;13.02;70.17
55866;BME280;41784;49.984;7.518;2022-07-06T04:18:30;98347.13;;;13.03;68.81
55866;BME280;41784;49.984;7.518;2022-07-06T04:20:59;98347.97;;;13.02;68.78
55866;BME280;41784;49.984;7.518;2022-07-06T04:23:29;98348.00;;;13.00;67.94
55866;BME280;41784;49.984;7.518;2022-07-06T04:26:03;98348.84;;;12.99;67.62
55866;BME280;41784;49.984;7.518;2022-07-06T04:28:34;98346.25;;;13.01;67.72
55866;BME280;41784;49.984;7.518;2022-07-06T04:31:02;98351.44;;;13.05;67.36
55866;BME280;41784;49.984;7.518;2022-07-06T04:33:31;98351.44;;;13.08;66.88
55866;BME280;41784;49.984;7.518;2022-07-06T04:35:59;98347.94;;;13.19;66.60
55866;BME280;41784;49.984;7.518;2022-07-06T04:38:36;98347.94;;;13.23;66.48
55866;BME280;41784;49.984;7.518;2022-07-06T04:41:09;98343.63;;;13.28;66.13
55866;BME280;41784;49.984;7.518;2022-07-06T04:43:37;98351.41;;;13.38;66.27
55866;BME280;41784;49.984;7.518;2022-07-06T04:46:07;98346.16;;;13.51;65.91
55866;BME280;41784;49.984;7.518;2022-07-06T04:48:39;98358.22;;;13.65;65.55
55866;BME280;41784;49.984;7.518;2022-07-06T04:51:11;98359.88;;;13.78;65.12
55866;BME280;41784;49.984;7.518;2022-07-06T04:53:40;98361.59;;;13.87;64.52
55866;BME280;41784;49.984;7.518;2022-07-06T04:56:11;98358.91;;;14.04;63.99
55866;BME280;41784;49.984;7.518;2022-07-06T04:58:40;98362.28;;;14.20;63.28
55866;BME280;41784;49.984;7.518;2022-07-06T05:01:12;98365.69;;;14.32;63.14
55866;BME280;41784;49.984;7.518;2022-07-06T05:03:41;98368.16;;;14.48;62.35
55866;BME280;41784;49.984;7.518;2022-07-06T05:06:11;98371.50;;;14.70;61.84
55866;BME280;41784;49.984;7.518;2022-07-06T05:08:42;98369.66;;;14.84;61.59
55866;BME280;41784;49.984;7.518;2022-07-06T05:11:13;98372.03;;;15.06;61.37
55866;BME280;41784;49.984;7.518;2022-07-06T05:13:41;98373.69;;;15.16;60.22
55866;BME280;41784;49.984;7.518;2022-07-06T05:16:10;98371.75;;;15.33;59.99
55866;BME280;41784;49.984;7.518;2022-07-06T05:18:39;98362.91;;;15.50;59.51
55866;BME280;41784;49.984;7.518;2022-07-06T05:21:07;98372.28;;;15.66;58.28
55866;BME280;41784;49.984;7.518;2022-07-06T05:23:36;98379.91;;;15.84;58.40
55866;BME280;41784;49.984;7.518;2022-07-06T05:26:04;98373.66;;;15.96;57.45
55866;BME280;41784;49.984;7.518;2022-07-06T05:28:36;98370.84;;;16.13;57.04
55866;BME280;41784;49.984;7.518;2022-07-06T05:31:08;98377.47;;;16.36;56.42
55866;BME280;41784;49.984;7.518;2022-07-06T05:33:36;98371.13;;;16.53;55.92
55866;BME280;41784;49.984;7.518;2022-07-06T05:36:05;98365.69;;;16.66;55.26
55866;BME280;41784;49.984;7.518;2022-07-06T05:38:33;98368.91;;;16.85;54.67
55866;BME280;41784;49.984;7.518;2022-07-06T05:41:02;98365.09;;;17.04;54.78
55866;BME280;41784;49.984;7.518;2022-07-06T05:43:32;98365.56;;;17.28;53.71
55866;BME280;41784;49.984;7.518;2022-07-06T05:46:06;98366.91;;;17.47;53.37
55866;BME280;41784;49.984;7.518;2022-07-06T05:48:35;98363.94;;;17.67;52.34
55866;BME280;41784;49.984;7.518;2022-07-06T05:51:16;98362.72;;;17.85;52.09
55866;BME280;41784;49.984;7.518;2022-07-06T05:53:46;98359.53;;;18.11;51.28
55866;BME280;41784;49.984;7.518;2022-07-06T05:56:15;98357.28;;;18.35;51.08
55866;BME280;41784;49.984;7.518;2022-07-06T05:58:44;98348.88;;;18.58;50.35
55866;BME280;41784;49.984;7.518;2022-07-06T06:01:16;98345.78;;;18.78;49.37
55866;BME280;41784;49.984;7.518;2022-07-06T06:03:52;98350.41;;;19.02;48.53
55866;BME280;41784;49.984;7.518;2022-07-06T06:06:21;98348.25;;;19.18;48.07
55866;BME280;41784;49.984;7.518;2022-07-06T06:08:50;98355.59;;;19.38;47.33
55866;BME280;41784;49.984;7.518;2022-07-06T06:11:18;98346.44;;;19.53;47.59
55866;BME280;41784;49.984;7.518;2022-07-06T06:13:47;98340.53;;;19.78;47.01
55866;BME280;41784;49.984;7.518;2022-07-06T06:16:19;98345.16;;;19.99;45.74
55866;BME280;41784;49.984;7.518;2022-07-06T06:18:48;98340.38;;;20.12;45.88
55866;BME280;41784;49.984;7.518;2022-07-06T06:21:16;98348.22;;;20.13;45.09
55866;BME280;41784;49.984;7.518;2022-07-06T06:23:45;98345.63;;;20.12;45.52
55866;BME280;41784;49.984;7.518;2022-07-06T06:26:13;98352.28;;;20.24;45.02
55866;BME280;41784;49.984;7.518;2022-07-06T06:28:42;98359.38;;;20.48;44.43
55866;BME280;41784;49.984;7.518;2022-07-06T06:31:10;98355.19;;;20.71;44.01
55866;BME280;41784;49.984;7.518;2022-07-06T06:33:41;98358.84;;;20.92;43.71
55866;BME280;41784;49.984;7.518;2022-07-06T06:36:09;98353.97;;;21.08;42.74
55866;BME280;41784;49.984;7.518;2022-07-06T06:38:38;98352.63;;;21.21;42.15
55866;BME280;41784;49.984;7.518;2022-07-06T06:41:07;98359.75;;;21.17;41.11
55866;BME280;41784;49.984;7.518;2022-07-06T06:43:36;98363.09;;;21.22;41.34
55866;BME280;41784;49.984;7.518;2022-07-06T06:46:19;98363.97;;;21.48;40.93
55866;BME280;41784;49.984;7.518;2022-07-06T06:48:57;98372.88;;;21.69;39.12
55866;BME280;41784;49.984;7.518;2022-07-06T06:51:26;98378.47;;;21.83;38.67
55866;BME280;41784;49.984;7.518;2022-07-06T06:53:54;98369.50;;;21.89;37.88
55866;BME280;41784;49.984;7.518;2022-07-06T06:56:23;98373.19;;;22.07;38.13
55866;BME280;41784;49.984;7.518;2022-07-06T06:58:51;98371.03;;;22.18;37.98
55866;BME280;41784;49.984;7.518;2022-07-06T07:01:20;98377.56;;;22.32;37.55
55866;BME280;41784;49.984;7.518;2022-07-06T07:03:50;98375.00;;;22.52;37.84
55866;BME280;41784;49.984;7.518;2022-07-06T07:06:22;98374.03;;;22.77;37.45
55866;BME280;41784;49.984;7.518;2022-07-06T07:08:50;98375.47;;;23.06;37.10
55866;BME280;41784;49.984;7.518;2022-07-06T07:11:20;98378.59;;;23.36;36.12
55866;BME280;41784;49.984;7.518;2022-07-06T07:13:49;98382.19;;;23.54;36.20
55866;BME280;41784;49.984;7.518;2022-07-06T07:16:17;98382.63;;;23.84;34.91
55866;BME280;41784;49.984;7.518;2022-07-06T07:18:46;98372.72;;;23.89;34.42
55866;BME280;41784;49.984;7.518;2022-07-06T07:21:14;98381.66;;;24.06;34.11
55866;BME280;41784;49.984;7.518;2022-07-06T07:23:45;98372.91;;;24.05;34.32
55866;BME280;41784;49.984;7.518;2022-07-06T07:26:15;98372.31;;;24.36;34.67
55866;BME280;41784;49.984;7.518;2022-07-06T07:28:44;98381.19;;;24.54;33.45
55866;BME280;41784;49.984;7.518;2022-07-06T07:31:12;98382.09;;;24.90;32.72
55866;BME280;41784;49.984;7.518;2022-07-06T07:33:40;98373.28;;;25.25;32.05
55866;BME280;41784;49.984;7.518;2022-07-06T07:36:09;98370.47;;;25.46;32.50
55866;BME280;41784;49.984;7.518;2022-07-06T07:38:37;98383.03;;;25.76;32.32
55866;BME280;41784;49.984;7.518;2022-07-06T07:41:08;98375.41;;;25.87;32.11
55866;BME280;41784;49.984;7.518;2022-07-06T07:43:39;98376.25;;;26.03;31.74
55866;BME280;41784;49.984;7.518;2022-07-06T07:46:08;98370.66;;;26.09;31.70
55866;BME280;41784;49.984;7.518;2022-07-06T07:48:40;98380.47;;;26.07;31.30
55866;BME280;41784;49.984;7.518;2022-07-06T07:51:09;98379.06;;;25.67;31.82
55866;BME280;41784;49.984;7.518;2022-07-06T07:53:38;98379.44;;;25.26;32.11
55866;BME280;41784;49.984;7.518;2022-07-06T07:56:10;98373.94;;;24.94;32.61
55866;BME280;41784;49.984;7.518;2022-07-06T07:58:39;98372.53;;;24.87;33.23
55866;BME280;41784;49.984;7.518;2022-07-06T08:01:09;98379.38;;;24.91;32.77
55866;BME280;41784;49.984;7.518;2022-07-06T08:03:39;98371.25;;;24.96;32.86
55866;BME280;41784;49.984;7.518;2022-07-06T08:06:09;98368.34;;;25.00;32.51
55866;BME280;41784;49.984;7.518;2022-07-06T08:08:38;98370.09;;;25.36;31.62
55866;BME280;41784;49.984;7.518;2022-07-06T08:11:10;98371.81;;;25.88;31.73
55866;BME280;41784;49.984;7.518;2022-07-06T08:13:41;98370.06;;;26.36;30.44
55866;BME280;41784;49.984;7.518;2022-07-06T08:16:10;98364.16;;;26.31;29.78
55866;BME280;41784;49.984;7.518;2022-07-06T08:18:39;98370.47;;;26.12;29.90
55866;BME280;41784;49.984;7.518;2022-07-06T08:21:08;98372.41;;;25.93;30.46
55866;BME280;41784;49.984;7.518;2022-07-06T08:23:37;98375.28;;;25.55;31.24
55866;BME280;41784;49.984;7.518;2022-07-06T08:26:06;98379.97;;;25.50;31.83
55866;BME280;41784;49.984;7.518;2022-07-06T08:28:38;98377.31;;;25.50;31.73
55866;BME280;41784;49.984;7.518;2022-07-06T08:31:07;98368.75;;;25.62;31.56
55866;BME280;41784;49.984;7.518;2022-07-06T08:33:35;98371.84;;;26.20;31.13
55866;BME280;41784;49.984;7.518;2022-07-06T08:36:05;98368.78;;;26.27;30.54
55866;BME280;41784;49.984;7.518;2022-07-06T08:38:34;98363.91;;;26.67;30.27
55866;BME280;41784;49.984;7.518;2022-07-06T08:41:03;98364.66;;;26.85;29.42
55866;BME280;41784;49.984;7.518;2022-07-06T08:43:34;98364.28;;;26.91;29.09
55866;BME280;41784;49.984;7.518;2022-07-06T08:46:06;98365.88;;;26.64;29.25
55866;BME280;41784;49.984;7.518;2022-07-06T08:48:36;98374.03;;;26.61;29.42
55866;BME280;41784;49.984;7.518;2022-07-06T08:51:06;98373.25;;;26.59;29.73
55866;BME280;41784;49.984;7.518;2022-07-06T08:53:35;98377.50;;;26.77;29.83
55866;BME280;41784;49.984;7.518;2022-07-06T08:56:04;98376.59;;;26.92;29.20
55866;BME280;41784;49.984;7.518;2022-07-06T08:58:33;98376.13;;;26.86;28.88
55866;BME280;41784;49.984;7.518;2022-07-06T09:01:09;98375.41;;;26.82;28.68
55866;BME280;41784;49.984;7.518;2022-07-06T09:03:38;98379.56;;;27.02;28.93
55866;BME280;41784;49.984;7.518;2022-07-06T09:06:08;98375.16;;;27.33;28.30
55866;BME280;41784;49.984;7.518;2022-07-06T09:08:37;98374.56;;;27.12;28.22
55866;BME280;41784;49.984;7.518;2022-07-06T09:11:06;98372.16;;;26.93;28.62
55866;BME280;41784;49.984;7.518;2022-07-06T09:13:35;98365.25;;;26.90;29.16
55866;BME280;41784;49.984;7.518;2022-07-06T09:16:13;98371.41;;;27.21;28.95
55866;BME280;41784;49.984;7.518;2022-07-06T09:18:43;98374.50;;;27.13;28.55
55866;BME280;41784;49.984;7.518;2022-07-06T09:21:12;98368.63;;;26.78;29.14
55866;BME280;41784;49.984;7.518;2022-07-06T09:23:52;98367.84;;;26.76;28.40
55866;BME280;41784;49.984;7.518;2022-07-06T09:26:21;98365.97;;;27.08;28.51
55866;BME280;41784;49.984;7.518;2022-07-06T09:28:49;98370.91;;;27.45;27.78
55866;BME280;41784;49.984;7.518;2022-07-06T09:31:21;98367.50;;;27.57;27.79
55866;BME280;41784;49.984;7.518;2022-07-06T09:33:56;98372.44;;;27.77;27.74
55866;BME280;41784;49.984;7.518;2022-07-06T09:36:38;98373.31;;;28.07;27.48
55866;BME280;41784;49.984;7.518;2022-07-06T09:39:17;98370.75;;;28.19;26.83
55866;BME280;41784;49.984;7.518;2022-07-06T09:41:46;98377.31;;;28.14;27.26
55866;BME280;41784;49.984;7.518;2022-07-06T09:44:18;98387.63;;;27.75;27.18
55866;BME280;41784;49.984;7.518;2022-07-06T09:46:50;98380.47;;;27.61;27.99
55866;BME280;41784;49.984;7.518;2022-07-06T09:49:18;98389.63;;;27.86;27.61
55866;BME280;41784;49.984;7.518;2022-07-06T09:51:48;98388.38;;;28.20;27.10
55866;BME280;41784;49.984;7.518;2022-07-06T09:54:17;98381.63;;;28.43;26.71
55866;BME280;41784;49.984;7.518;2022-07-06T09:56:47;98382.66;;;28.82;26.06
55866;BME280;41784;49.984;7.518;2022-07-06T09:59:17;98374.34;;;29.14;25.52
55866;BME280;41784;49.984;7.518;2022-07-06T10:01:46;98366.50;;;29.13;25.28
55866;BME280;41784;49.984;7.518;2022-07-06T10:04:18;98361.41;;;29.48;25.13
55866;BME280;41784;49.984;7.518;2022-07-06T10:06:47;98362.41;;;29.72;24.68
55866;BME280;41784;49.984;7.518;2022-07-06T10:09:17;98364.44;;;29.69;24.43
55866;BME280;41784;49.984;7.518;2022-07-06T10:11:48;98370.69;;;29.29;24.97
55866;BME280;41784;49.984;7.518;2022-07-06T10:14:17;98370.84;;;29.14;24.85
55866;BME280;41784;49.984;7.518;2022-07-06T10:16:46;98366.28;;;29.16;24.91
55866;BME280;41784;49.984;7.518;2022-07-06T10:19:18;98361.19;;;29.51;24.46
55866;BME280;41784;49.984;7.518;2022-07-06T10:21:47;98357.41;;;29.81;24.75
55866;BME280;41784;49.984;7.518;2022-07-06T10:24:16;98364.44;;;29.69;24.66
55866;BME280;41784;49.984;7.518;2022-07-06T10:26:46;98369.53;;;29.46;25.16
55866;BME280;41784;49.984;7.518;2022-07-06T10:29:15;98378.25;;;29.61;25.14
55866;BME280;41784;49.984;7.518;2022-07-06T10:31:43;98363.75;;;29.52;24.64
55866;BME280;41784;49.984;7.518;2022-07-06T10:34:13;98363.69;;;29.67;24.62
55866;BME280;41784;49.984;7.518;2022-07-06T10:36:48;98363.47;;;29.70;24.90
55866;BME280;41784;49.984;7.518;2022-07-06T10:39:16;98364.31;;;29.45;24.14
55866;BME280;41784;49.984;7.518;2022-07-06T10:42:17;98362.56;;;29.31;24.60
55866;BME280;41784;49.984;7.518;2022-07-06T10:45:06;98356.47;;;29.16;24.39
55866;BME280;41784;49.984;7.518;2022-07-06T10:47:35;98361.06;;;29.14;24.41
55866;BME280;41784;49.984;7.518;2022-07-06T10:50:04;98357.47;;;29.41;24.65
55866;BME280;41784;49.984;7.518;2022-07-06T10:55:30;98361.00;;;29.54;24.83
55866;BME280;41784;49.984;7.518;2022-07-06T10:57:59;98358.69;;;29.75;24.68
55866;BME280;41784;49.984;7.518;2022-07-06T11:00:42;98362.78;;;29.53;25.05
55866;BME280;41784;49.984;7.518;2022-07-06T11:05:59;98365.00;;;28.81;25.62
55866;BME280;41784;49.984;7.518;2022-07-06T11:11:14;98361.56;;;28.52;25.05
55866;BME280;41784;49.984;7.518;2022-07-06T11:13:50;98368.63;;;28.53;25.88
55866;BME280;41784;49.984;7.518;2022-07-06T11:16:20;98360.34;;;28.58;25.66
55866;BME280;41784;49.984;7.518;2022-07-06T11:18:49;98367.28;;;28.60;25.21
55866;BME280;41784;49.984;7.518;2022-07-06T11:21:18;98363.59;;;28.76;25.42
55866;BME280;41784;49.984;7.518;2022-07-06T11:23:47;98363.09;;;28.83;25.11
55866;BME280;41784;49.984;7.518;2022-07-06T11:26:19;98362.78;;;28.88;25.13
55866;BME280;41784;49.984;7.518;2022-07-06T11:28:49;98362.13;;;28.84;25.06
55866;BME280;41784;49.984;7.518;2022-07-06T11:31:19;98363.25;;;28.67;25.76
55866;BME280;41784;49.984;7.518;2022-07-06T11:33:47;98363.47;;;28.50;26.02
55866;BME280;41784;49.984;7.518;2022-07-06T11:36:17;98364.44;;;28.49;26.58
55866;BME280;41784;49.984;7.518;2022-07-06T11:38:46;98359.97;;;28.50;26.37
55866;BME280;41784;49.984;7.518;2022-07-06T11:41:15;98362.00;;;28.46;25.84
55866;BME280;41784;49.984;7.518;2022-07-06T11:43:46;98354.56;;;28.51;26.20
55866;BME280;41784;49.984;7.518;2022-07-06T11:46:23;98349.63;;;28.45;26.12
55866;BME280;41784;49.984;7.518;2022-07-06T11:48:54;98354.06;;;28.44;25.74
55866;BME280;41784;49.984;7.518;2022-07-06T11:51:23;98349.25;;;28.37;25.81
55866;BME280;41784;49.984;7.518;2022-07-06T11:53:52;98351.81;;;28.38;25.87
55866;BME280;41784;49.984;7.518;2022-07-06T11:56:21;98334.41;;;28.61;25.55
55866;BME280;41784;49.984;7.518;2022-07-06T11:58:53;98340.78;;;28.59;25.54
55866;BME280;41784;49.984;7.518;2022-07-06T12:01:24;98329.69;;;28.52;25.45
55866;BME280;41784;49.984;7.518;2022-07-06T12:03:57;98344.91;;;28.36;26.05
55866;BME280;41784;49.984;7.518;2022-07-06T12:06:26;98328.63;;;28.13;25.56
55866;BME280;41784;49.984;7.518;2022-07-06T12:08:57;98345.91;;;28.06;26.25
55866;BME280;41784;49.984;7.518;2022-07-06T12:11:26;98344.59;;;28.13;25.67
55866;BME280;41784;49.984;7.518;2022-07-06T12:13:58;98349.69;;;28.16;26.16
55866;BME280;41784;49.984;7.518;2022-07-06T12:16:31;98348.16;;;28.12;26.15
55866;BME280;41784;49.984;7.518;2022-07-06T12:19:01;98356.13;;;28.26;26.07
55866;BME280;41784;49.984;7.518;2022-07-06T12:21:30;98345.75;;;28.36;25.93
55866;BME280;41784;49.984;7.518;2022-07-06T12:23:59;98345.28;;;28.30;26.06
55866;BME280;41784;49.984;7.518;2022-07-06T12:26:27;98350.13;;;28.23;26.04
55866;BME280;41784;49.984;7.518;2022-07-06T12:29:03;98336.75;;;28.24;25.63
55866;BME280;41784;49.984;7.518;2022-07-06T12:31:35;98337.66;;;28.38;25.38
55866;BME280;41784;49.984;7.518;2022-07-06T12:34:12;98331.97;;;28.02;26.28
55866;BME280;41784;49.984;7.518;2022-07-06T12:36:42;98338.09;;;28.17;26.06
55866;BME280;41784;49.984;7.518;2022-07-06T12:39:14;98324.94;;;28.01;25.75
55866;BME280;41784;49.984;7.518;2022-07-06T12:41:45;98328.63;;;28.13;26.19
55866;BME280;41784;49.984;7.518;2022-07-06T12:44:18;98332.13;;;28.28;26.15
55866;BME280;41784;49.984;7.518;2022-07-06T12:46:48;98326.59;;;28.31;26.65
55866;BME280;41784;49.984;7.518;2022-07-06T12:49:18;98329.25;;;28.31;26.62
55866;BME280;41784;49.984;7.518;2022-07-06T12:51:55;98335.47;;;28.44;26.03
55866;BME280;41784;49.984;7.518;2022-07-06T12:54:25;98328.06;;;28.50;26.04
55866;BME280;41784;49.984;7.518;2022-07-06T12:57:01;98333.25;;;28.65;25.58
55866;BME280;41784;49.984;7.518;2022-07-06T12:59:34;98337.09;;;28.47;25.92
55866;BME280;41784;49.984;7.518;2022-07-06T13:02:03;98324.00;;;28.44;25.81
55866;BME280;41784;49.984;7.518;2022-07-06T13:04:33;98330.56;;;28.38;26.24
55866;BME280;41784;49.984;7.518;2022-07-06T13:07:02;98339.03;;;28.31;25.60
55866;BME280;41784;49.984;7.518;2022-07-06T13:09:31;98337.91;;;28.20;25.78
55866;BME280;41784;49.984;7.518;2022-07-06T13:12:00;98333.53;;;28.19;24.87
55866;BME280;41784;49.984;7.518;2022-07-06T13:14:29;98330.34;;;28.14;25.48
55866;BME280;41784;49.984;7.518;2022-07-06T13:17:00;98328.28;;;27.91;26.14
55866;BME280;41784;49.984;7.518;2022-07-06T13:19:28;98325.63;;;27.76;26.44
55866;BME280;41784;49.984;7.518;2022-07-06T13:21:57;98324.06;;;27.44;26.80
55866;BME280;41784;49.984;7.518;2022-07-06T13:24:25;98327.84;;;27.25;27.11